Time;durP1;ratioP1;P1;durP2;ratioP2;P2;SDS_P1;SDS_P2;PMS_P1;PMS_P2;Temp;Humidity;BMP_temperature;BMP_pressure;BME280_temperature;BME280_humidity;BME280_pressure;Samples;Min_cycle;Max_cycle;Signal;HPM_P1;HPM_P2
2023/03/14 00:02:10;;;;;;;2.20;1.30;;;13.50;96.80;;;;;;4933375;29;20462;-87
2023/03/14 00:04:38;;;;;;;2.60;1.20;;;13.60;96.70;;;;;;4932969;29;20450;-86
2023/03/14 00:07:14;;;;;;;1.80;1.60;;;13.50;96.70;;;;;;4933145;29;21003;-86
2023/03/14 00:09:46;;;;;;;3.03;1.40;;;13.40;96.90;;;;;;4948689;28;20493;-85
2023/03/14 00:12:18;;;;;;;3.20;1.20;;;13.50;97.00;;;;;;4918310;29;20462;-86
2023/03/14 00:14:50;;;;;;;6.53;1.73;;;13.50;96.70;;;;;;4923600;29;20438;-85
2023/03/14 00:17:24;;;;;;;2.33;1.33;;;13.60;96.70;;;;;;4919989;29;20460;-83
2023/03/14 00:20:03;;;;;;;2.77;1.33;;;13.50;96.60;;;;;;4919127;29;20491;-84
2023/03/14 00:22:31;;;;;;;2.53;1.20;;;13.50;96.60;;;;;;4935882;29;20453;-88
2023/03/14 00:24:58;;;;;;;2.20;1.43;;;13.60;96.50;;;;;;4933476;29;20439;-86
2023/03/14 00:27:27;;;;;;;4.23;1.37;;;13.60;96.50;;;;;;4922175;29;20473;-84
2023/03/14 00:29:54;;;;;;;2.33;1.20;;;13.50;96.40;;;;;;4928095;29;20482;-85
2023/03/14 00:32:27;;;;;;;1.80;1.40;;;13.50;96.30;;;;;;4931754;29;20496;-84
2023/03/14 00:34:58;;;;;;;6.03;1.40;;;13.60;96.30;;;;;;4949084;29;20461;-86
2023/03/14 00:37:36;;;;;;;4.83;2.13;;;13.60;96.30;;;;;;4930646;29;20501;-84
2023/03/14 00:40:07;;;;;;;4.90;1.47;;;13.60;96.20;;;;;;4949474;29;20477;-85
2023/03/14 00:42:37;;;;;;;4.80;2.23;;;13.60;96.20;;;;;;4940052;29;21131;-84
2023/03/14 00:45:10;;;;;;;4.63;1.60;;;13.60;96.20;;;;;;4953443;28;20465;-85
2023/03/14 00:47:45;;;;;;;3.37;1.80;;;13.60;96.20;;;;;;4921986;29;20501;-85
2023/03/14 00:50:20;;;;;;;6.03;1.47;;;13.60;96.10;;;;;;4937904;29;20544;-85
2023/03/14 00:52:52;;;;;;;3.20;1.70;;;13.60;96.00;;;;;;4926169;29;20485;-85
2023/03/14 00:55:19;;;;;;;3.60;1.40;;;13.60;95.90;;;;;;4946837;29;20464;-85
2023/03/14 00:58:01;;;;;;;2.33;1.00;;;13.60;95.90;;;;;;4930525;29;20509;-86
2023/03/14 01:00:31;;;;;;;1.63;1.13;;;13.60;95.90;;;;;;4955501;28;20497;-84
2023/03/14 01:03:15;;;;;;;1.90;0.90;;;13.70;95.90;;;;;;4922489;29;20450;-85
2023/03/14 01:05:43;;;;;;;1.90;1.10;;;13.60;95.90;;;;;;4936296;29;20933;-84
2023/03/14 01:08:16;;;;;;;4.40;1.90;;;13.60;96.00;;;;;;4919224;29;20729;-84
2023/03/14 01:10:44;;;;;;;3.77;0.90;;;13.60;96.00;;;;;;4938567;29;20472;-84
2023/03/14 01:13:14;;;;;;;1.80;0.93;;;13.70;96.20;;;;;;4923975;29;21036;-86
2023/03/14 01:15:44;;;;;;;2.50;1.20;;;13.70;96.20;;;;;;4924009;29;20490;-85
2023/03/14 01:18:10;;;;;;;2.63;1.00;;;13.60;96.70;;;;;;4923412;29;20556;-83
2023/03/14 01:20:45;;;;;;;2.30;1.97;;;13.70;96.90;;;;;;4955317;28;20476;-85
2023/03/14 01:23:23;;;;;;;3.57;1.33;;;13.50;97.50;;;;;;4926405;29;20464;-83
2023/03/14 01:25:52;;;;;;;4.10;1.07;;;13.30;98.50;;;;;;4962367;28;20525;-86
2023/03/14 01:28:20;;;;;;;4.80;1.53;;;13.10;99.40;;;;;;4950491;29;20497;-85
2023/03/14 01:30:48;;;;;;;3.10;1.50;;;12.90;99.90;;;;;;4931183;29;20493;-85
2023/03/14 01:33:15;;;;;;;4.10;1.00;;;12.80;99.90;;;;;;4946789;29;20464;-85
2023/03/14 01:35:42;;;;;;;3.93;1.10;;;12.70;99.90;;;;;;4929304;29;20469;-86
2023/03/14 01:38:09;;;;;;;2.90;1.60;;;12.70;99.90;;;;;;4926021;29;20553;-85
2023/03/14 01:40:43;;;;;;;5.90;1.10;;;13.10;99.90;;;;;;4918335;29;20555;-85
2023/03/14 01:43:16;;;;;;;2.57;1.00;;;13.20;99.90;;;;;;4905966;29;20485;-85
2023/03/14 01:46:04;;;;;;;2.70;1.10;;;13.10;99.90;;;;;;4910899;29;21033;-85
2023/03/14 01:48:40;;;;;;;2.13;1.23;;;12.90;99.90;;;;;;4926552;29;20915;-84
2023/03/14 01:51:19;;;;;;;4.37;0.80;;;12.90;99.90;;;;;;4911264;29;20467;-83
2023/03/14 01:53:50;;;;;;;3.00;0.80;;;12.50;99.90;;;;;;4925830;29;20473;-84
2023/03/14 01:56:19;;;;;;;1.17;0.67;;;12.40;99.90;;;;;;4908628;29;20466;-84
2023/03/14 01:58:49;;;;;;;5.30;0.80;;;12.60;99.90;;;;;;4930370;29;20493;-81
2023/03/14 02:01:20;;;;;;;0.87;0.80;;;12.50;99.90;;;;;;4931968;29;20464;-83
2023/03/14 02:03:53;;;;;;;5.13;0.90;;;12.50;99.90;;;;;;4931770;29;20454;-82
2023/03/14 02:06:25;;;;;;;1.87;0.77;;;12.40;99.90;;;;;;4914900;29;20593;-83
2023/03/14 02:08:52;;;;;;;1.30;0.70;;;12.30;99.90;;;;;;4914256;29;20493;-80
2023/03/14 02:11:19;;;;;;;3.00;1.20;;;12.20;99.90;;;;;;4943389;28;20588;-84
2023/03/14 02:13:50;;;;;;;2.40;0.60;;;12.10;99.90;;;;;;4948203;28;20509;-83
2023/03/14 02:16:17;;;;;;;2.20;0.80;;;12.10;99.90;;;;;;4914687;29;20481;-83
2023/03/14 02:18:44;;;;;;;0.60;0.60;;;12.10;99.90;;;;;;4925678;29;20627;-83
2023/03/14 02:21:11;;;;;;;1.83;0.40;;;12.00;99.90;;;;;;4916844;29;20450;-84
2023/03/14 02:23:46;;;;;;;1.23;0.90;;;12.10;99.90;;;;;;4925881;29;20466;-84
2023/03/14 02:26:38;;;;;;;0.83;0.83;;;12.00;99.90;;;;;;4931956;29;20488;-84
2023/03/14 02:29:10;;;;;;;0.93;0.57;;;12.00;99.90;;;;;;4932436;29;20489;-87
2023/03/14 02:31:39;;;;;;;0.60;0.50;;;11.90;99.90;;;;;;4917908;29;20505;-83
2023/03/14 02:34:07;;;;;;;0.40;0.40;;;11.90;99.90;;;;;;4947466;28;20463;-84
2023/03/14 02:36:34;;;;;;;1.43;0.70;;;12.00;99.90;;;;;;4931852;29;20857;-83
2023/03/14 02:39:19;;;;;;;1.70;0.60;;;11.90;99.90;;;;;;4913545;29;20852;-85
2023/03/14 02:41:50;;;;;;;1.50;0.80;;;11.90;99.90;;;;;;4918490;29;20446;-85
2023/03/14 02:44:20;;;;;;;1.90;0.70;;;11.90;99.90;;;;;;4930018;29;20498;-84
2023/03/14 02:46:48;;;;;;;2.03;0.60;;;12.00;99.90;;;;;;4918268;29;20446;-83
2023/03/14 02:49:22;;;;;;;1.73;0.90;;;11.90;99.90;;;;;;4942093;29;20464;-83
2023/03/14 02:51:51;;;;;;;2.67;0.90;;;12.10;99.90;;;;;;4939984;29;20475;-83
2023/03/14 02:54:31;;;;;;;1.37;0.90;;;12.00;99.90;;;;;;4944500;29;20477;-85
2023/03/14 02:57:03;;;;;;;3.07;1.10;;;12.00;99.90;;;;;;4930009;29;20457;-84
2023/03/14 02:59:38;;;;;;;1.10;1.00;;;12.00;99.90;;;;;;4923583;29;20485;-84
2023/03/14 03:02:09;;;;;;;1.47;0.90;;;12.10;99.90;;;;;;4921528;29;20461;-83
2023/03/14 03:04:43;;;;;;;2.07;0.83;;;12.10;99.90;;;;;;4918660;29;20465;-85
2023/03/14 03:07:10;;;;;;;1.07;0.70;;;12.10;99.90;;;;;;4933943;29;20536;-86
2023/03/14 03:09:40;;;;;;;2.37;0.77;;;12.10;99.90;;;;;;4932810;29;20478;-83
2023/03/14 03:12:13;;;;;;;2.63;0.97;;;12.10;99.90;;;;;;4931669;29;20465;-84
2023/03/14 03:14:45;;;;;;;1.83;0.97;;;11.90;99.90;;;;;;4917756;29;20826;-83
2023/03/14 03:17:18;;;;;;;1.93;0.70;;;11.90;99.90;;;;;;4926565;29;20493;-85
2023/03/14 03:19:50;;;;;;;2.90;0.83;;;11.90;99.90;;;;;;4917037;29;20512;-83
2023/03/14 03:22:19;;;;;;;2.60;0.93;;;11.90;99.90;;;;;;4948127;28;20462;-84
2023/03/14 03:24:47;;;;;;;2.27;1.27;;;11.90;99.90;;;;;;4914701;29;20469;-84
2023/03/14 03:27:17;;;;;;;3.17;1.20;;;11.80;99.90;;;;;;4909350;29;20470;-85
2023/03/14 03:29:44;;;;;;;3.47;0.93;;;11.80;99.90;;;;;;4930505;29;20504;-86
2023/03/14 03:32:18;;;;;;;1.93;0.93;;;11.90;99.90;;;;;;4895024;29;20472;-85
2023/03/14 03:34:49;;;;;;;1.93;1.20;;;12.00;99.90;;;;;;4902115;29;20839;-86
2023/03/14 03:37:20;;;;;;;5.30;1.70;;;12.00;99.90;;;;;;4914463;29;20474;-86
2023/03/14 03:39:50;;;;;;;2.10;1.10;;;12.10;99.90;;;;;;4924358;23;20498;-84
2023/03/14 03:42:19;;;;;;;3.17;1.27;;;12.10;99.90;;;;;;4931262;29;20507;-84
2023/03/14 03:44:49;;;;;;;5.53;1.20;;;12.10;99.90;;;;;;4935417;28;20525;-84
2023/03/14 03:47:22;;;;;;;5.77;1.40;;;12.10;99.90;;;;;;4927022;29;20454;-84
2023/03/14 03:49:52;;;;;;;4.10;1.40;;;12.20;99.90;;;;;;4910838;29;20467;-83
2023/03/14 03:52:22;;;;;;;3.00;1.20;;;12.20;99.90;;;;;;4889859;29;20534;-83
2023/03/14 03:54:51;;;;;;;5.27;1.63;;;12.20;99.90;;;;;;4914245;29;22182;-85
2023/03/14 03:57:24;;;;;;;3.27;1.17;;;12.20;99.90;;;;;;4897003;29;20466;-84
2023/03/14 03:59:54;;;;;;;3.77;2.77;;;12.20;99.90;;;;;;4898945;29;20497;-83
2023/03/14 04:02:26;;;;;;;3.60;1.30;;;12.40;99.90;;;;;;4898210;29;20458;-84
2023/03/14 04:04:55;;;;;;;1.93;1.00;;;12.40;99.90;;;;;;4911949;29;20458;-84
2023/03/14 04:07:25;;;;;;;2.43;1.20;;;12.40;99.90;;;;;;4912233;29;20490;-86
2023/03/14 04:09:54;;;;;;;3.40;1.17;;;12.40;99.90;;;;;;4897864;29;20482;-83
2023/03/14 04:12:24;;;;;;;3.20;1.10;;;12.30;99.90;;;;;;4894917;29;20459;-83
2023/03/14 04:14:57;;;;;;;4.17;1.20;;;12.40;99.90;;;;;;4910524;29;20458;-84
2023/03/14 04:17:31;;;;;;;1.97;1.23;;;12.30;99.90;;;;;;4909881;29;20473;-84
2023/03/14 04:20:10;;;;;;;5.53;1.67;;;12.40;99.90;;;;;;4897198;29;20573;-84
2023/03/14 04:22:41;;;;;;;3.93;1.33;;;12.40;99.90;;;;;;4909771;29;20466;-85
2023/03/14 04:25:10;;;;;;;4.80;1.30;;;12.40;99.90;;;;;;4897069;29;20570;-84
2023/03/14 04:27:41;;;;;;;4.77;1.30;;;12.30;99.90;;;;;;4896370;29;20478;-82
2023/03/14 04:30:09;;;;;;;1.73;1.13;;;12.30;99.90;;;;;;4909359;29;20584;-86
2023/03/14 04:32:39;;;;;;;4.23;1.00;;;12.30;99.90;;;;;;4894538;29;20833;-83
2023/03/14 04:35:07;;;;;;;5.07;1.30;;;12.30;99.90;;;;;;4889209;29;20466;-81
2023/03/14 04:37:36;;;;;;;2.53;1.43;;;12.20;99.90;;;;;;4907583;29;20477;-83
2023/03/14 04:40:06;;;;;;;5.23;1.50;;;12.10;99.90;;;;;;4908386;29;20498;-83
2023/03/14 04:42:32;;;;;;;1.73;0.87;;;12.20;99.90;;;;;;4914259;29;20461;-84
2023/03/14 04:45:00;;;;;;;2.77;1.00;;;12.30;99.90;;;;;;4915557;29;20514;-84
2023/03/14 04:47:27;;;;;;;1.87;1.00;;;12.30;99.90;;;;;;4895969;29;20645;-86
2023/03/14 04:49:56;;;;;;;3.10;0.87;;;12.20;99.90;;;;;;4910153;29;20454;-85
2023/03/14 04:52:23;;;;;;;1.47;0.80;;;12.20;99.90;;;;;;4900465;29;20471;-84
2023/03/14 04:54:50;;;;;;;2.80;1.13;;;12.10;99.90;;;;;;4922131;29;20453;-83
2023/03/14 04:57:17;;;;;;;2.53;0.73;;;12.10;99.90;;;;;;4907629;29;20495;-85
2023/03/14 04:59:44;;;;;;;1.27;0.80;;;12.10;99.90;;;;;;4922592;29;20486;-86
2023/03/14 05:02:11;;;;;;;1.40;0.90;;;12.00;99.90;;;;;;4923448;29;20467;-85
2023/03/14 05:04:38;;;;;;;4.17;1.60;;;12.00;99.90;;;;;;4917893;29;20457;-84
2023/03/14 05:07:05;;;;;;;2.07;0.80;;;11.90;99.90;;;;;;4913357;29;21000;-84
2023/03/14 05:09:31;;;;;;;1.43;1.33;;;11.90;99.90;;;;;;4913601;29;20877;-85
2023/03/14 05:12:02;;;;;;;1.90;0.73;;;12.00;99.90;;;;;;4896072;29;20503;-83
2023/03/14 05:14:31;;;;;;;2.50;0.80;;;11.90;99.90;;;;;;4912818;29;20454;-84
2023/03/14 05:17:01;;;;;;;1.90;0.57;;;12.00;99.90;;;;;;5452981;23;20501;-85
2023/03/14 05:19:28;;;;;;;1.20;0.70;;;12.00;99.90;;;;;;4918088;29;20478;-84
2023/03/14 05:21:54;;;;;;;2.60;0.70;;;11.90;99.90;;;;;;4923626;29;20441;-83
2023/03/14 05:24:24;;;;;;;1.77;0.60;;;11.90;99.90;;;;;;4928099;29;20450;-84
2023/03/14 05:26:53;;;;;;;1.13;0.80;;;12.00;99.90;;;;;;4929050;29;20487;-84
2023/03/14 05:29:25;;;;;;;4.30;0.50;;;12.00;99.90;;;;;;4924404;29;22078;-84
2023/03/14 05:32:01;;;;;;;1.03;0.40;;;11.90;99.90;;;;;;4929799;29;20466;-86
2023/03/14 05:34:28;;;;;;;0.60;0.60;;;11.90;99.90;;;;;;4924578;29;20472;-84
2023/03/14 05:36:58;;;;;;;0.60;0.50;;;11.90;99.90;;;;;;4924219;29;20490;-84
2023/03/14 05:39:24;;;;;;;1.50;0.60;;;11.90;99.90;;;;;;4924261;29;20458;-85
2023/03/14 05:41:55;;;;;;;1.13;0.50;;;11.90;99.90;;;;;;4928662;29;20454;-85
2023/03/14 05:44:25;;;;;;;3.33;0.50;;;12.00;99.90;;;;;;4926663;29;20475;-84
2023/03/14 05:47:08;;;;;;;0.70;0.50;;;12.00;99.90;;;;;;4940866;28;20840;-81
2023/03/14 05:49:40;;;;;;;2.10;0.43;;;12.00;99.90;;;;;;4953589;28;20499;-83
2023/03/14 05:52:14;;;;;;;1.13;0.40;;;12.00;99.90;;;;;;4937244;28;20445;-84
2023/03/14 05:54:51;;;;;;;1.27;0.40;;;12.00;99.90;;;;;;4936424;28;21053;-84
2023/03/14 05:57:32;;;;;;;0.97;0.47;;;12.00;99.90;;;;;;4937436;28;20449;-84
2023/03/14 06:00:04;;;;;;;3.17;0.40;;;12.00;99.90;;;;;;4934396;28;20490;-84
2023/03/14 06:02:40;;;;;;;0.40;0.33;;;12.00;99.90;;;;;;4925955;28;20986;-85
2023/03/14 06:05:14;;;;;;;1.10;0.40;;;11.90;99.90;;;;;;4934385;28;20455;-83
2023/03/14 06:10:16;;;;;;;0.47;0.47;;;12.00;99.90;;;;;;4961209;28;20496;-84
2023/03/14 06:12:43;;;;;;;0.30;0.30;;;12.00;99.90;;;;;;4952195;28;20450;-83
2023/03/14 06:15:12;;;;;;;1.57;0.50;;;12.00;99.90;;;;;;4972892;28;20457;-82
2023/03/14 06:17:39;;;;;;;0.60;0.50;;;12.00;99.90;;;;;;4971443;28;20452;-84
2023/03/14 06:20:11;;;;;;;0.80;0.60;;;12.00;99.90;;;;;;4971058;28;20589;-83
2023/03/14 06:22:39;;;;;;;0.60;0.40;;;11.90;99.90;;;;;;4967011;28;20449;-82
2023/03/14 06:25:24;;;;;;;0.73;0.60;;;12.00;99.90;;;;;;4957578;28;20457;-84
2023/03/14 06:27:58;;;;;;;0.37;0.37;;;12.10;99.90;;;;;;4957208;28;20511;-83
2023/03/14 06:30:41;;;;;;;0.53;0.40;;;12.10;99.90;;;;;;4963575;28;20463;-83
2023/03/14 06:33:15;;;;;;;0.70;0.40;;;12.20;99.90;;;;;;4962936;28;20538;-84
2023/03/14 06:35:45;;;;;;;0.60;0.50;;;12.00;99.90;;;;;;4966649;28;20468;-82
2023/03/14 06:38:34;;;;;;;1.03;0.50;;;12.00;99.90;;;;;;5093412;23;20484;-83
2023/03/14 06:41:25;;;;;;;1.73;0.60;;;12.20;99.90;;;;;;4945313;28;20484;-84
2023/03/14 06:43:56;;;;;;;1.67;0.80;;;12.30;99.90;;;;;;4949086;28;20479;-82
2023/03/14 06:46:26;;;;;;;1.60;0.63;;;12.00;99.90;;;;;;4952204;28;20461;-82
2023/03/14 06:49:15;;;;;;;0.40;0.40;;;11.90;99.90;;;;;;4931605;28;20481;-81
2023/03/14 06:51:50;;;;;;;2.80;0.60;;;12.20;99.90;;;;;;4937418;28;20483;-83
2023/03/14 06:54:30;;;;;;;0.40;0.40;;;12.20;99.90;;;;;;4944519;28;20844;-82
2023/03/14 06:57:01;;;;;;;1.53;0.70;;;12.60;99.90;;;;;;4936082;28;20541;-84
2023/03/14 06:59:34;;;;;;;0.60;0.50;;;12.50;99.90;;;;;;4933917;28;20488;-85
2023/03/14 07:02:24;;;;;;;0.40;0.30;;;12.40;99.90;;;;;;4949754;28;20465;-85
2023/03/14 07:05:35;;;;;;;0.50;0.50;;;12.60;99.90;;;;;;4932843;28;20469;-84
2023/03/14 07:08:28;;;;;;;;;;;;;;;;;;;;;
2023/03/14 07:16:52;;;;;;;0.60;0.60;;;12.50;99.90;;;;;;4925261;29;22559;-82
2023/03/14 07:19:42;;;;;;;0.80;0.80;;;12.70;99.90;;;;;;4937158;29;20492;-85
2023/03/14 07:22:15;;;;;;;0.90;0.70;;;12.80;99.90;;;;;;4947917;29;20516;-84
2023/03/14 07:25:11;;;;;;;1.07;0.83;;;12.90;99.90;;;;;;4928267;29;21212;-82
2023/03/14 07:27:53;;;;;;;0.67;0.60;;;12.80;99.90;;;;;;4929691;29;20461;-85
2023/03/14 07:30:37;;;;;;;0.60;0.50;;;13.00;99.90;;;;;;4934110;29;20517;-85
2023/03/14 07:33:17;;;;;;;0.40;0.40;;;13.10;99.90;;;;;;4930351;29;20458;-84
2023/03/14 07:35:44;;;;;;;0.40;0.40;;;13.20;99.90;;;;;;4927524;29;20442;-84
2023/03/14 07:38:20;;;;;;;0.50;0.50;;;13.20;99.90;;;;;;4929751;29;20494;-84
2023/03/14 07:41:10;;;;;;;0.70;0.53;;;13.40;99.90;;;;;;4927550;29;20504;-83
2023/03/14 07:43:49;;;;;;;1.30;0.60;;;13.40;99.90;;;;;;4946400;29;20504;-84
2023/03/14 07:46:21;;;;;;;1.43;0.50;;;13.20;99.90;;;;;;4927816;29;20469;-85
2023/03/14 07:49:05;;;;;;;0.60;0.40;;;13.00;99.90;;;;;;4930313;29;20476;-83
2023/03/14 07:51:39;;;;;;;0.50;0.43;;;13.40;99.90;;;;;;4931169;29;20484;-85
2023/03/14 07:54:18;;;;;;;0.63;0.50;;;13.70;99.90;;;;;;4930359;29;20957;-84
2023/03/14 07:56:48;;;;;;;1.50;1.17;;;13.60;99.90;;;;;;4926360;29;20470;-83
2023/03/14 07:59:31;;;;;;;0.87;0.60;;;13.60;99.90;;;;;;4932185;29;20495;-86
2023/03/14 08:02:10;;;;;;;0.67;0.57;;;13.10;99.90;;;;;;4954133;29;20473;-84
2023/03/14 08:04:49;;;;;;;0.50;0.40;;;13.10;99.90;;;;;;4934450;29;20463;-83
2023/03/14 08:07:30;;;;;;;0.73;0.50;;;13.50;99.90;;;;;;4937704;29;20476;-86
2023/03/14 08:10:01;;;;;;;0.43;0.30;;;13.50;99.90;;;;;;4934448;29;20441;-84
2023/03/14 08:12:40;;;;;;;1.17;0.40;;;13.30;99.90;;;;;;4933171;29;20460;-83
2023/03/14 08:15:11;;;;;;;0.53;0.50;;;13.20;99.90;;;;;;4934545;29;20472;-87
2023/03/14 08:17:50;;;;;;;0.40;0.30;;;13.20;99.90;;;;;;4949980;28;21253;-84
2023/03/14 08:20:24;;;;;;;0.70;0.60;;;13.20;99.90;;;;;;4934477;29;21283;-83
2023/03/14 08:23:05;;;;;;;1.37;0.60;;;13.40;99.90;;;;;;4956830;29;20580;-83
2023/03/14 08:25:43;;;;;;;1.53;0.70;;;13.20;99.90;;;;;;4959977;29;20467;-85
2023/03/14 08:28:23;;;;;;;1.03;0.50;;;13.10;99.90;;;;;;4955632;23;20494;-88
2023/03/14 08:30:58;;;;;;;2.00;0.60;;;13.60;99.90;;;;;;4929342;29;20470;-85
2023/03/14 08:33:33;;;;;;;1.80;0.43;;;13.30;99.90;;;;;;4944032;28;20502;-87
2023/03/14 08:36:03;;;;;;;1.17;0.47;;;13.40;99.90;;;;;;4931575;29;20709;-87
2023/03/14 08:38:38;;;;;;;1.73;0.70;;;13.40;99.90;;;;;;4944976;29;20486;-84
2023/03/14 08:41:10;;;;;;;1.00;0.50;;;13.40;99.90;;;;;;4908813;29;20553;-87
2023/03/14 08:43:49;;;;;;;1.07;0.67;;;13.50;99.90;;;;;;4930065;29;20501;-86
2023/03/14 08:46:41;;;;;;;0.33;0.30;;;13.40;99.90;;;;;;4932308;29;20458;-86
2023/03/14 08:49:15;;;;;;;1.13;1.03;;;13.40;99.90;;;;;;4927694;28;20477;-88
2023/03/14 08:51:48;;;;;;;0.80;0.60;;;13.30;99.90;;;;;;4937217;29;20601;-86
2023/03/14 08:54:18;;;;;;;1.27;0.67;;;13.20;99.90;;;;;;4929937;29;20771;-85
2023/03/14 08:56:50;;;;;;;0.40;0.30;;;13.40;99.90;;;;;;4912407;29;21175;-84
2023/03/14 08:59:36;;;;;;;1.90;0.63;;;13.70;99.90;;;;;;4916493;29;21798;-83
2023/03/14 09:02:11;;;;;;;1.80;0.50;;;13.40;99.90;;;;;;4913230;29;21020;-83
2023/03/14 09:04:45;;;;;;;0.60;0.50;;;13.20;99.90;;;;;;4912783;29;21017;-85
2023/03/14 09:07:12;;;;;;;0.50;0.47;;;13.50;99.90;;;;;;4912488;29;20744;-86
2023/03/14 09:09:48;;;;;;;0.40;0.40;;;13.40;99.90;;;;;;4918379;29;20490;-86
2023/03/14 09:12:25;;;;;;;0.60;0.60;;;13.20;99.90;;;;;;4913544;29;20462;-84
2023/03/14 09:14:52;;;;;;;0.50;0.50;;;13.00;99.90;;;;;;4911856;29;20565;-84
2023/03/14 09:17:22;;;;;;;0.60;0.50;;;12.80;99.90;;;;;;4911135;29;20471;-83
2023/03/14 09:19:51;;;;;;;2.47;0.60;;;12.80;99.90;;;;;;4930835;29;21766;-85
2023/03/14 09:22:21;;;;;;;0.73;0.73;;;12.70;99.90;;;;;;4925353;29;20493;-86
2023/03/14 09:24:50;;;;;;;1.00;0.80;;;12.60;99.90;;;;;;4939041;29;20470;-85
2023/03/14 09:27:29;;;;;;;2.50;0.80;;;12.70;99.90;;;;;;4938773;29;20473;-84
2023/03/14 09:29:59;;;;;;;1.13;1.03;;;12.60;99.90;;;;;;4922201;29;20473;-85
2023/03/14 09:32:46;;;;;;;0.93;0.93;;;12.60;99.90;;;;;;4937023;29;20529;-84
2023/03/14 09:35:15;;;;;;;1.13;1.00;;;12.70;99.90;;;;;;4926705;29;20470;-85
2023/03/14 09:38:07;;;;;;;1.70;0.90;;;12.60;99.90;;;;;;4913500;29;20485;-85
2023/03/14 09:40:37;;;;;;;1.20;1.10;;;12.60;99.90;;;;;;4907739;29;20474;-85
2023/03/14 09:43:14;;;;;;;1.07;0.63;;;12.50;99.90;;;;;;4929504;29;20474;-82
2023/03/14 09:45:46;;;;;;;0.40;0.40;;;12.30;99.90;;;;;;4917980;29;20480;-85
2023/03/14 09:48:21;;;;;;;0.90;0.60;;;12.00;99.90;;;;;;4914471;29;21539;-83
2023/03/14 09:50:55;;;;;;;0.60;0.57;;;11.70;99.90;;;;;;4917014;29;20472;-85
2023/03/14 09:53:42;;;;;;;0.90;0.80;;;11.50;99.90;;;;;;4935266;29;20458;-86
2023/03/14 09:56:32;;;;;;;1.10;1.00;;;11.40;99.90;;;;;;4918773;29;20518;-86
2023/03/14 09:59:14;;;;;;;0.90;0.90;;;11.30;99.90;;;;;;4914936;29;20492;-82
2023/03/14 10:01:50;;;;;;;1.03;0.90;;;11.20;99.90;;;;;;4917267;29;20514;-84
2023/03/14 10:04:24;;;;;;;2.83;1.00;;;11.10;99.90;;;;;;4919384;29;20506;-84
2023/03/14 10:07:35;;;;;;;1.67;1.57;;;11.00;99.90;;;;;;4919686;29;20526;-86
2023/03/14 10:10:24;;;;;;;2.63;2.47;;;11.00;99.90;;;;;;4933118;29;20450;-84
2023/03/14 10:12:59;;;;;;;2.63;2.43;;;11.00;99.90;;;;;;4920847;29;20474;-84
2023/03/14 10:15:36;;;;;;;2.70;1.20;;;10.90;99.90;;;;;;4913498;29;20454;-85
2023/03/14 10:18:27;;;;;;;1.40;1.30;;;10.90;99.90;;;;;;4934012;29;20542;-83
2023/03/14 10:21:48;;;;;;;;;;;;;;;;;;;;;
2023/03/14 10:24:33;;;;;;;1.40;1.30;;;10.80;99.90;;;;;;4930732;29;20435;-85
2023/03/14 10:27:29;;;;;;;1.00;1.00;;;10.70;99.90;;;;;;4934865;29;20443;-83
2023/03/14 10:30:07;;;;;;;1.60;1.50;;;10.60;99.90;;;;;;4950609;29;20445;-86
2023/03/14 10:32:45;;;;;;;1.60;1.43;;;10.60;99.90;;;;;;4935993;29;20458;-84
2023/03/14 10:35:26;;;;;;;0.80;0.80;;;10.60;99.90;;;;;;4932201;29;20464;-86
2023/03/14 10:38:14;;;;;;;;;;;;;;;;;;;;;
2023/03/14 10:41:27;;;;;;;1.13;0.93;;;10.40;99.90;;;;;;4935691;29;20474;-86
2023/03/14 10:44:12;;;;;;;0.77;0.77;;;10.40;99.90;;;;;;4930789;29;20480;-87
2023/03/14 10:46:39;;;;;;;1.27;1.10;;;10.30;99.90;;;;;;4927610;29;20465;-84
2023/03/14 10:49:27;;;;;;;1.73;0.90;;;10.30;99.90;;;;;;4936786;28;20573;-85
2023/03/14 10:52:22;;;;;;;1.23;1.03;;;10.20;99.90;;;;;;4915018;29;20473;-81
2023/03/14 10:55:19;;;;;;;1.27;1.00;;;10.30;99.90;;;;;;4932333;29;20457;-82
2023/03/14 10:57:52;;;;;;;0.80;0.80;;;10.30;99.90;;;;;;4935746;29;20813;-83
2023/03/14 11:00:27;;;;;;;0.70;0.70;;;10.40;99.90;;;;;;4920656;29;20469;-85
2023/03/14 11:03:14;;;;;;;1.30;1.00;;;10.40;99.90;;;;;;4933601;29;20554;-84
2023/03/14 11:09:41;;;;;;;1.60;1.20;;;10.40;99.90;;;;;;4942139;28;20449;-87
2023/03/14 11:12:32;;;;;;;0.90;0.90;;;10.40;99.90;;;;;;4935218;29;20464;-85
2023/03/14 11:15:09;;;;;;;1.60;1.10;;;10.40;99.90;;;;;;4918426;29;21151;-85
2023/03/14 11:18:03;;;;;;;1.17;0.97;;;10.30;99.90;;;;;;4928353;29;20461;-82
2023/03/14 11:20:30;;;;;;;1.13;1.10;;;10.30;99.90;;;;;;4932416;29;20457;-81
2023/03/14 11:23:13;;;;;;;2.27;1.33;;;10.50;99.90;;;;;;4919783;29;20520;-83
2023/03/14 11:26:07;;;;;;;2.07;1.50;;;10.90;99.90;;;;;;4922227;29;20588;-86
2023/03/14 11:28:45;;;;;;;1.30;1.20;;;11.30;99.90;;;;;;4929383;29;20509;-83
2023/03/14 11:31:24;;;;;;;1.30;1.20;;;11.50;99.90;;;;;;4931556;29;20469;-83
2023/03/14 11:34:06;;;;;;;1.93;1.27;;;11.50;99.90;;;;;;4932544;29;20437;-85
2023/03/14 11:36:46;;;;;;;1.00;1.00;;;11.50;99.90;;;;;;4931953;29;20533;-84
2023/03/14 11:39:18;;;;;;;1.53;1.43;;;11.60;99.90;;;;;;4931694;29;20554;-82
2023/03/14 11:41:57;;;;;;;2.10;1.10;;;11.50;99.90;;;;;;4934265;29;20493;-83
2023/03/14 11:44:27;;;;;;;1.30;1.20;;;11.40;99.90;;;;;;4931229;29;20450;-84
2023/03/14 11:46:59;;;;;;;1.20;1.10;;;11.30;99.90;;;;;;4914399;29;20446;-83
2023/03/14 11:49:53;;;;;;;1.80;0.80;;;11.20;99.90;;;;;;4931410;29;20485;-85
2023/03/14 11:52:23;;;;;;;1.20;1.03;;;10.70;99.90;;;;;;4926501;29;20458;-84
2023/03/14 11:55:00;;;;;;;1.20;0.80;;;10.40;99.90;;;;;;4929611;29;20473;-85
2023/03/14 11:57:27;;;;;;;0.77;0.50;;;10.20;99.90;;;;;;4916970;29;20463;-84
2023/03/14 12:00:13;;;;;;;1.20;1.10;;;10.20;99.90;;;;;;4931941;29;20527;-84
2023/03/14 12:02:58;;;;;;;0.60;0.60;;;10.10;99.90;;;;;;4932400;29;20560;-86
2023/03/14 12:05:33;;;;;;;2.77;0.90;;;10.10;99.90;;;;;;4922108;29;20570;-82
2023/03/14 12:08:35;;;;;;;1.03;0.80;;;10.00;99.90;;;;;;4923205;29;20537;-85
2023/03/14 12:11:13;;;;;;;1.37;0.83;;;10.00;99.90;;;;;;4911562;29;20457;-85
2023/03/14 12:13:48;;;;;;;2.97;1.43;;;10.00;99.90;;;;;;4948754;28;20503;-85
2023/03/14 12:16:24;;;;;;;1.60;1.03;;;10.10;99.90;;;;;;4947257;29;20476;-83
2023/03/14 12:18:53;;;;;;;1.77;1.40;;;10.10;99.90;;;;;;4926089;29;20486;-85
2023/03/14 12:21:21;;;;;;;4.30;1.53;;;10.20;99.90;;;;;;4941439;29;20486;-84
2023/03/14 12:24:03;;;;;;;3.67;1.80;;;10.30;99.90;;;;;;4925511;29;20461;-84
2023/03/14 12:26:53;;;;;;;1.43;1.17;;;10.30;99.90;;;;;;4941961;29;20493;-84
2023/03/14 12:29:25;;;;;;;2.27;1.20;;;10.20;99.90;;;;;;4940997;29;20929;-85
2023/03/14 12:32:26;;;;;;;1.67;1.20;;;10.20;99.90;;;;;;4943600;29;20510;-86
2023/03/14 12:35:10;;;;;;;2.87;1.20;;;10.20;99.90;;;;;;4923206;29;20457;-85
2023/03/14 12:37:47;;;;;;;2.80;1.10;;;10.30;99.90;;;;;;4908699;29;20556;-83
2023/03/14 12:40:26;;;;;;;3.53;1.40;;;10.40;99.90;;;;;;4938063;29;20460;-83
2023/03/14 12:43:10;;;;;;;1.10;0.80;;;10.40;99.90;;;;;;4938574;29;20482;-85
2023/03/14 12:49:37;;;;;;;2.30;1.27;;;10.50;99.90;;;;;;4914714;29;20504;-84
2023/03/14 12:52:24;;;;;;;6.10;1.60;;;10.50;99.90;;;;;;4926791;29;20549;-84
2023/03/14 12:55:27;;;;;;;4.93;1.00;;;10.40;99.90;;;;;;4911241;29;20584;-85
2023/03/14 12:58:31;;;;;;;1.83;0.83;;;10.30;99.90;;;;;;4938658;29;20466;-84
2023/03/14 13:01:12;;;;;;;2.57;1.30;;;10.40;99.90;;;;;;4938914;29;22707;-84
2023/03/14 13:04:03;;;;;;;1.77;0.83;;;10.30;99.90;;;;;;4944044;29;20481;-82
2023/03/14 13:07:00;;;;;;;2.73;1.17;;;10.40;99.90;;;;;;4938793;29;20456;-87
2023/03/14 13:10:01;;;;;;;2.70;0.90;;;10.30;99.80;;;;;;4940554;28;20482;-84
2023/03/14 13:12:37;;;;;;;1.90;1.03;;;10.10;99.70;;;;;;4945019;29;20512;-85
2023/03/14 13:15:25;;;;;;;2.57;1.20;;;10.10;99.90;;;;;;4946083;29;20489;-86
2023/03/14 13:17:56;;;;;;;3.10;1.70;;;10.10;99.90;;;;;;4947374;29;20487;-82
2023/03/14 13:20:32;;;;;;;1.73;1.10;;;10.20;99.90;;;;;;4942169;29;20501;-84
2023/03/14 13:23:03;;;;;;;1.60;0.80;;;10.10;99.90;;;;;;4928045;29;20512;-84
2023/03/14 13:25:36;;;;;;;3.23;1.00;;;10.30;99.90;;;;;;4942914;29;20517;-86
2023/03/14 13:28:26;;;;;;;2.50;0.80;;;10.40;99.90;;;;;;4937342;28;20569;-85
2023/03/14 13:31:03;;;;;;;2.53;0.87;;;10.30;99.90;;;;;;4924976;29;20555;-85
2023/03/14 13:33:33;;;;;;;0.87;0.80;;;10.30;99.90;;;;;;4940373;29;20454;-84
2023/03/14 13:36:11;;;;;;;2.57;2.00;;;10.50;99.90;;;;;;4943605;29;20464;-86
2023/03/14 13:45:03;;;;;;;3.73;1.07;;;10.40;99.70;;;;;;5439983;23;20531;-83
2023/03/14 13:47:39;;;;;;;2.30;1.27;;;10.30;99.00;;;;;;4944843;28;20452;-86
2023/03/14 13:50:20;;;;;;;1.23;1.07;;;10.20;99.10;;;;;;4949613;28;20489;-83
2023/03/14 13:52:57;;;;;;;1.57;0.90;;;10.00;99.10;;;;;;4948147;28;22154;-82
2023/03/14 13:55:29;;;;;;;1.00;0.80;;;10.20;99.50;;;;;;4956713;28;20468;-83
2023/03/14 13:57:57;;;;;;;3.60;1.27;;;10.20;99.20;;;;;;4945160;28;20469;-85